createdAt,value
2023-02-13T00:01:32.428Z,4.88
2023-02-13T00:04:01.733Z,5.40
2023-02-13T00:06:30.259Z,5.45
2023-02-13T00:08:58.813Z,5.22
2023-02-13T00:11:27.322Z,5.77
2023-02-13T00:13:55.435Z,5.63
2023-02-13T00:16:23.945Z,5.40
2023-02-13T00:18:53.354Z,5.05
2023-02-13T00:21:21.407Z,5.75
2023-02-13T00:23:50.544Z,5.18
2023-02-13T00:26:19.596Z,5.38
2023-02-13T00:28:49.171Z,5.32
2023-02-13T00:31:20.902Z,5.75
2023-02-13T00:33:50.872Z,5.40
2023-02-13T00:36:25.135Z,5.40
2023-02-13T00:38:56.001Z,5.72
2023-02-13T00:41:25.360Z,5.65
2023-02-13T00:43:54.239Z,5.40
2023-02-13T00:46:22.439Z,6.37
2023-02-13T00:48:51.188Z,6.27
2023-02-13T00:51:21.359Z,6.57
2023-02-13T00:53:49.771Z,5.93
2023-02-13T00:56:17.985Z,5.82
2023-02-13T00:58:46.788Z,6.57
2023-02-13T01:01:15.024Z,6.22
2023-02-13T01:03:44.336Z,5.78
2023-02-13T01:06:14.318Z,5.93
2023-02-13T01:08:45.153Z,5.22
2023-02-13T01:11:13.585Z,5.20
2023-02-13T01:13:42.653Z,5.20
2023-02-13T01:16:13.279Z,5.65
2023-02-13T01:18:41.497Z,6.15
2023-02-13T01:21:19.005Z,6.07
2023-02-13T01:23:49.140Z,6.25
2023-02-13T01:26:25.612Z,6.53
2023-02-13T01:28:55.620Z,6.95
2023-02-13T01:31:26.804Z,7.28
2023-02-13T01:33:58.977Z,6.45
2023-02-13T01:36:28.590Z,6.70
2023-02-13T01:39:00.345Z,6.43
2023-02-13T01:41:30.093Z,6.77
2023-02-13T01:44:01.107Z,6.45
2023-02-13T01:46:38.926Z,6.38
2023-02-13T01:49:14.498Z,7.05
2023-02-13T01:51:45.452Z,7.10
2023-02-13T01:54:18.984Z,8.23
2023-02-13T01:56:55.634Z,8.15
2023-02-13T01:59:29.682Z,7.47
2023-02-13T02:02:01.430Z,7.85
2023-02-13T02:04:34.146Z,7.93
2023-02-13T02:07:13.293Z,7.90
2023-02-13T02:09:47.320Z,8.87
2023-02-13T02:12:25.480Z,9.05
2023-02-13T02:14:56.794Z,8.30
2023-02-13T02:17:28.676Z,8.00
2023-02-13T02:20:16.408Z,8.77
2023-02-13T02:23:42.596Z,8.20
2023-02-13T02:26:46.882Z,7.78
2023-02-13T02:29:57.156Z,7.80
2023-02-13T02:32:50.594Z,7.05
2023-02-13T02:35:33.332Z,6.97
2023-02-13T02:38:28.027Z,7.35
2023-02-13T02:41:11.671Z,7.22
2023-02-13T02:43:56.387Z,7.43
2023-02-13T02:46:34.417Z,7.53
2023-02-13T02:49:25.712Z,8.77
2023-02-13T02:52:05.804Z,8.50
2023-02-13T02:54:59.110Z,7.90
2023-02-13T02:57:48.119Z,8.07
2023-02-13T03:00:45.373Z,7.40
2023-02-13T03:03:37.675Z,7.32
2023-02-13T03:06:17.728Z,7.25
2023-02-13T03:09:24.349Z,7.32
2023-02-13T03:12:14.444Z,7.10
2023-02-13T03:14:46.359Z,7.47
2023-02-13T03:17:37.264Z,6.65
2023-02-13T03:20:41.554Z,7.30
2023-02-13T03:23:18.376Z,7.25
2023-02-13T03:26:18.316Z,6.60
2023-02-13T03:29:17.178Z,6.63
2023-02-13T03:32:01.735Z,7.70
2023-02-13T03:34:58.424Z,7.07
2023-02-13T03:37:53.564Z,7.47
2023-02-13T03:40:32.727Z,7.70
2023-02-13T03:43:13.300Z,6.97
2023-02-13T03:45:57.346Z,7.60
2023-02-13T03:48:50.323Z,6.68
2023-02-13T03:51:26.613Z,7.60
2023-02-13T03:54:02.101Z,7.28
2023-02-13T03:56:53.851Z,7.78
2023-02-13T03:59:28.419Z,7.70
2023-02-13T04:02:08.014Z,7.60
2023-02-13T04:04:48.183Z,7.80
2023-02-13T04:07:30.601Z,7.85
2023-02-13T04:10:03.427Z,8.00
2023-02-13T04:12:43.938Z,9.88
2023-02-13T04:15:19.735Z,14.15
2023-02-13T04:17:55.292Z,8.05
2023-02-13T04:20:23.479Z,10.37
2023-02-13T04:22:51.719Z,11.75
2023-02-13T04:25:21.900Z,10.57
2023-02-13T04:27:51.305Z,8.82
2023-02-13T04:30:24.145Z,9.52
2023-02-13T04:32:53.400Z,9.07
2023-02-13T04:35:21.765Z,8.97
2023-02-13T04:37:50.640Z,8.52
2023-02-13T04:40:20.397Z,9.40
2023-02-13T04:42:49.752Z,10.70
2023-02-13T04:45:19.728Z,8.35
2023-02-13T04:47:52.696Z,8.87
2023-02-13T04:50:22.991Z,9.20
2023-02-13T04:52:55.309Z,8.15
2023-02-13T04:55:25.047Z,9.05
2023-02-13T04:57:54.454Z,8.50
2023-02-13T05:00:27.998Z,8.45
2023-02-13T05:03:05.049Z,8.43
2023-02-13T05:05:33.377Z,10.95
2023-02-13T05:08:02.188Z,9.70
2023-02-13T05:10:31.514Z,9.05
2023-02-13T05:13:00.159Z,9.20
2023-02-13T05:15:30.010Z,10.57
2023-02-13T05:17:58.631Z,10.50
2023-02-13T05:20:28.509Z,9.52
2023-02-13T05:23:15.508Z,9.63
2023-02-13T05:25:43.849Z,8.88
2023-02-13T05:28:26.127Z,9.27
2023-02-13T05:30:58.328Z,8.80
2023-02-13T05:33:27.430Z,9.00
2023-02-13T05:35:55.567Z,9.15
2023-02-13T05:38:24.437Z,9.10
2023-02-13T05:40:52.820Z,13.75
2023-02-13T05:43:21.227Z,15.40
2023-02-13T05:45:49.458Z,16.13
2023-02-13T05:48:18.879Z,20.00
2023-02-13T05:50:48.495Z,18.58
2023-02-13T05:53:17.389Z,18.30
2023-02-13T05:55:45.645Z,23.63
2023-02-13T05:58:14.634Z,28.92
2023-02-13T06:00:42.708Z,28.02
2023-02-13T06:03:11.142Z,32.80
2023-02-13T06:05:40.913Z,28.85
2023-02-13T06:08:09.032Z,29.42
2023-02-13T06:10:37.480Z,24.70
2023-02-13T06:13:06.440Z,25.90
2023-02-13T06:15:34.729Z,27.77
2023-02-13T06:18:03.071Z,33.53
2023-02-13T06:20:31.823Z,40.55
2023-02-13T06:23:03.745Z,33.20
2023-02-13T06:25:32.271Z,33.00
2023-02-13T06:28:00.201Z,32.05
2023-02-13T06:30:28.535Z,38.27
2023-02-13T06:32:57.941Z,27.40
2023-02-13T06:35:28.000Z,21.83
2023-02-13T06:37:56.211Z,23.23
2023-02-13T06:40:27.385Z,38.13
2023-02-13T06:42:56.607Z,38.42
2023-02-13T06:45:28.816Z,35.17
2023-02-13T06:47:56.936Z,37.40
2023-02-13T06:50:25.118Z,30.10
2023-02-13T06:52:54.504Z,28.08
2023-02-13T06:55:24.907Z,40.20
2023-02-13T06:58:12.398Z,29.45
2023-02-13T07:00:41.726Z,23.98
2023-02-13T07:03:11.632Z,25.63
2023-02-13T07:05:42.872Z,28.75
2023-02-13T07:08:14.649Z,28.05
2023-02-13T07:10:44.149Z,21.17
2023-02-13T07:13:13.233Z,15.25
2023-02-13T07:16:02.786Z,14.55
2023-02-13T07:18:31.036Z,11.15
2023-02-13T07:21:00.162Z,10.00
2023-02-13T07:23:29.448Z,10.40
2023-02-13T07:26:00.414Z,10.63
2023-02-13T07:28:30.774Z,11.55
2023-02-13T07:30:59.395Z,10.43
2023-02-13T07:33:27.730Z,10.75
2023-02-13T07:35:56.250Z,12.45
2023-02-13T07:38:24.352Z,11.15
2023-02-13T07:40:52.862Z,11.85
2023-02-13T07:43:40.715Z,25.65
2023-02-13T07:46:11.249Z,31.58
2023-02-13T07:48:40.306Z,30.25
2023-02-13T07:51:10.397Z,20.20
2023-02-13T07:53:38.585Z,17.85
2023-02-13T07:56:29.311Z,13.45
2023-02-13T07:58:58.778Z,13.45
2023-02-13T08:01:27.652Z,12.70
2023-02-13T08:03:57.302Z,9.75
2023-02-13T08:06:28.095Z,10.20
2023-02-13T08:09:10.230Z,12.77
2023-02-13T08:11:57.335Z,11.48
2023-02-13T08:14:29.207Z,11.05
2023-02-13T08:17:00.656Z,9.98
2023-02-13T08:19:29.684Z,10.77
2023-02-13T08:21:58.156Z,19.13
2023-02-13T08:24:27.241Z,24.40
2023-02-13T08:26:56.936Z,17.60
2023-02-13T08:29:27.943Z,16.67
2023-02-13T08:31:56.545Z,17.88
2023-02-13T08:34:26.524Z,17.77
2023-02-13T08:36:55.957Z,15.25
2023-02-13T08:39:24.902Z,16.33
2023-02-13T08:41:53.619Z,16.55
2023-02-13T08:44:21.791Z,14.98
2023-02-13T08:46:51.291Z,12.68
2023-02-13T08:49:20.260Z,11.20
2023-02-13T08:51:48.673Z,6.75
2023-02-13T08:54:18.075Z,12.48
2023-02-13T08:56:46.211Z,17.08
2023-02-13T08:59:15.169Z,9.82
2023-02-13T09:01:44.886Z,8.15
2023-02-13T09:04:15.899Z,5.90
2023-02-13T09:06:45.963Z,6.40
2023-02-13T09:09:14.291Z,7.18
2023-02-13T09:11:42.604Z,7.88
2023-02-13T09:14:11.780Z,5.78
2023-02-13T09:16:41.272Z,5.60
2023-02-13T09:19:10.128Z,7.47
2023-02-13T09:22:02.129Z,5.47
2023-02-13T09:24:33.041Z,5.97
2023-02-13T09:27:01.752Z,6.40
2023-02-13T09:29:31.778Z,5.78
2023-02-13T09:32:00.355Z,5.60
2023-02-13T09:34:28.785Z,4.80
2023-02-13T09:36:57.231Z,5.93
2023-02-13T09:39:29.800Z,8.23
2023-02-13T09:42:01.359Z,53.15
2023-02-13T09:44:39.143Z,10.90
2023-02-13T09:50:28.968Z,5.63
2023-02-13T09:53:00.302Z,6.80
2023-02-13T09:55:49.409Z,5.97
2023-02-13T09:58:36.403Z,5.60
2023-02-13T10:01:16.831Z,7.47
2023-02-13T10:03:57.045Z,6.68
2023-02-13T10:06:33.375Z,6.68
2023-02-13T10:09:14.235Z,7.55
2023-02-13T10:12:20.091Z,6.07
2023-02-13T10:15:06.733Z,6.18
2023-02-13T10:17:40.306Z,7.53
2023-02-13T10:20:32.669Z,6.68
2023-02-13T10:23:18.758Z,5.13
2023-02-13T10:25:56.214Z,6.37
2023-02-13T10:28:35.356Z,7.45
2023-02-13T10:31:10.435Z,7.27
2023-02-13T10:33:50.039Z,8.82
2023-02-13T10:36:22.679Z,7.28
2023-02-13T10:39:01.585Z,11.23
2023-02-13T10:41:52.912Z,7.55
2023-02-13T10:44:49.372Z,8.73
2023-02-13T10:47:41.416Z,10.43
2023-02-13T10:50:39.421Z,10.43
2023-02-13T10:53:20.846Z,10.93
2023-02-13T10:56:10.622Z,9.40
2023-02-13T10:58:55.722Z,10.87
2023-02-13T11:01:35.650Z,10.10
2023-02-13T11:04:09.430Z,10.70
2023-02-13T11:06:43.711Z,10.10
2023-02-13T11:09:13.679Z,11.60
2023-02-13T11:11:43.910Z,10.87
2023-02-13T11:14:16.787Z,10.40
2023-02-13T11:17:05.420Z,14.13
2023-02-13T11:19:38.445Z,12.27
2023-02-13T11:22:12.908Z,13.50
2023-02-13T11:24:51.455Z,11.20
2023-02-13T11:27:28.286Z,9.80
2023-02-13T11:29:59.891Z,9.63
2023-02-13T11:32:32.009Z,10.87
2023-02-13T11:35:30.378Z,9.57
2023-02-13T11:38:21.462Z,9.63
2023-02-13T11:40:54.204Z,10.53
2023-02-13T11:43:29.837Z,9.60
2023-02-13T11:46:08.296Z,12.00
2023-02-13T11:48:38.028Z,10.00
2023-02-13T11:51:06.787Z,15.73
2023-02-13T11:53:40.666Z,11.25
2023-02-13T11:56:14.258Z,10.20
2023-02-13T11:58:44.484Z,10.77
2023-02-13T12:01:28.367Z,12.60
2023-02-13T12:04:07.299Z,8.73
2023-02-13T12:06:40.498Z,10.65
2023-02-13T12:09:16.717Z,10.80
2023-02-13T12:11:51.053Z,11.77
2023-02-13T12:14:24.530Z,18.05
2023-02-13T12:16:58.728Z,11.73
2023-02-13T12:19:41.547Z,11.63
2023-02-13T12:22:33.796Z,11.52
2023-02-13T12:25:32.859Z,13.17
2023-02-13T12:28:16.387Z,10.60
2023-02-13T12:31:09.616Z,11.25
2023-02-13T12:34:22.460Z,11.37
2023-02-13T12:37:14.268Z,13.63
2023-02-13T12:39:54.069Z,11.70
2023-02-13T12:42:44.404Z,12.10
2023-02-13T12:45:31.878Z,11.20
2023-02-13T12:48:28.994Z,10.90
2023-02-13T12:51:19.068Z,11.50
2023-02-13T12:54:16.836Z,11.47
2023-02-13T12:57:18.240Z,11.23
2023-02-13T13:00:13.007Z,11.32
2023-02-13T13:03:03.849Z,11.85
2023-02-13T13:06:10.905Z,11.82
2023-02-13T13:09:09.466Z,11.55
2023-02-13T13:12:10.706Z,11.07
2023-02-13T13:14:51.263Z,11.38
2023-02-13T13:17:36.329Z,12.25
2023-02-13T13:20:32.830Z,11.70
2023-02-13T13:23:13.349Z,12.70
2023-02-13T13:25:54.806Z,13.23
2023-02-13T13:28:26.643Z,12.45
2023-02-13T13:30:57.670Z,13.13
2023-02-13T13:33:28.491Z,30.35
2023-02-13T13:36:05.320Z,14.70
2023-02-13T13:38:52.103Z,16.27
2023-02-13T13:41:36.101Z,13.40
2023-02-13T13:44:38.928Z,12.82
2023-02-13T13:47:24.390Z,11.45
2023-02-13T13:49:55.547Z,13.07
2023-02-13T13:52:28.000Z,14.65
2023-02-13T13:55:00.409Z,13.40
2023-02-13T13:58:01.093Z,11.45
2023-02-13T14:00:32.540Z,13.25
2023-02-13T14:03:36.784Z,11.70
2023-02-13T14:06:09.520Z,12.10
2023-02-13T14:09:39.547Z,12.25
2023-02-13T14:12:39.395Z,13.00
2023-02-13T14:15:55.032Z,12.13
2023-02-13T14:18:26.936Z,11.33
2023-02-13T14:20:58.925Z,12.30
2023-02-13T14:23:50.068Z,12.20
2023-02-13T14:26:32.642Z,11.77
2023-02-13T14:29:24.622Z,11.25
2023-02-13T14:32:08.148Z,11.77
2023-02-13T14:34:40.733Z,10.80
2023-02-13T14:37:27.201Z,11.70
2023-02-13T14:40:27.904Z,11.88
2023-02-13T14:43:01.156Z,10.30
2023-02-13T14:45:35.236Z,10.90
2023-02-13T14:48:14.596Z,11.52
2023-02-13T14:50:48.469Z,12.90
2023-02-13T14:53:24.624Z,11.35
2023-02-13T14:56:01.739Z,11.68
2023-02-13T14:58:32.500Z,13.93
2023-02-13T15:01:07.107Z,12.20
2023-02-13T15:03:48.550Z,53.80
2023-02-13T15:06:27.412Z,21.27
2023-02-13T15:08:58.354Z,13.70
2023-02-13T15:11:39.215Z,28.42
2023-02-13T15:14:26.860Z,14.70
2023-02-13T15:17:05.750Z,21.80
2023-02-13T15:19:39.094Z,22.63
2023-02-13T15:22:08.664Z,36.95
2023-02-13T15:24:48.088Z,18.25
2023-02-13T15:27:23.210Z,18.85
2023-02-13T15:30:04.556Z,14.10
2023-02-13T15:32:37.631Z,18.65
2023-02-13T15:35:24.351Z,17.27
2023-02-13T15:37:52.500Z,17.52
2023-02-13T15:40:28.896Z,14.15
2023-02-13T15:42:58.923Z,14.20
2023-02-13T15:45:30.936Z,20.73
2023-02-13T15:48:00.530Z,26.42
2023-02-13T15:50:34.186Z,17.45
2023-02-13T15:53:06.740Z,16.42
2023-02-13T15:55:38.731Z,25.40
2023-02-13T15:58:07.722Z,15.82
2023-02-13T16:00:40.540Z,18.08
2023-02-13T16:03:18.461Z,14.10
2023-02-13T16:05:48.913Z,14.80
2023-02-13T16:08:38.130Z,12.57
2023-02-13T16:11:31.720Z,15.40
2023-02-13T16:14:20.914Z,15.70
2023-02-13T16:16:55.454Z,15.77
2023-02-13T16:19:31.931Z,14.93
2023-02-13T16:22:08.022Z,19.23
2023-02-13T16:24:38.243Z,15.27
2023-02-13T16:27:15.522Z,18.50
2023-02-13T16:29:59.567Z,25.35
2023-02-13T16:32:31.911Z,25.25
2023-02-13T16:35:28.942Z,23.63
2023-02-13T16:38:01.810Z,22.40
2023-02-13T16:40:40.728Z,28.47
2023-02-13T16:43:44.234Z,22.57
2023-02-13T16:46:32.274Z,21.83
2023-02-13T16:49:30.208Z,19.65
2023-02-13T16:52:13.167Z,37.05
2023-02-13T16:54:54.367Z,37.95
2023-02-13T16:57:30.121Z,61.80
2023-02-13T17:00:19.692Z,45.50
2023-02-13T17:02:49.265Z,59.80
2023-02-13T17:05:24.172Z,28.97
2023-02-13T17:07:57.547Z,29.87
2023-02-13T17:10:28.916Z,52.47
2023-02-13T17:13:01.548Z,43.47
2023-02-13T17:15:32.702Z,64.90
2023-02-13T17:18:01.214Z,71.60
2023-02-13T17:20:32.897Z,70.73
2023-02-13T17:23:08.042Z,39.43
2023-02-13T17:25:38.825Z,29.37
2023-02-13T17:28:15.712Z,27.57
2023-02-13T17:30:44.822Z,26.83
2023-02-13T17:33:17.636Z,45.10
2023-02-13T17:35:46.347Z,75.33
2023-02-13T17:38:16.048Z,83.30
2023-02-13T17:40:47.243Z,62.00
2023-02-13T17:43:20.754Z,49.90
2023-02-13T17:45:50.759Z,80.53
2023-02-13T17:48:19.348Z,32.10
2023-02-13T17:50:50.215Z,24.27
2023-02-13T17:53:24.920Z,19.33
2023-02-13T17:55:53.605Z,19.80
2023-02-13T17:58:21.837Z,16.33
2023-02-13T18:00:49.963Z,13.10
2023-02-13T18:03:18.680Z,16.07
2023-02-13T18:05:49.526Z,11.67
2023-02-13T18:08:21.874Z,13.47
2023-02-13T18:10:52.047Z,21.43
2023-02-13T18:13:20.816Z,47.73
2023-02-13T18:15:50.195Z,65.77
2023-02-13T18:18:22.702Z,37.47
2023-02-13T18:20:56.575Z,45.43
2023-02-13T18:23:26.285Z,36.60
2023-02-13T18:25:54.775Z,27.37
2023-02-13T18:28:23.130Z,23.10
2023-02-13T18:30:51.842Z,26.30
2023-02-13T18:33:20.461Z,20.37
2023-02-13T18:35:49.123Z,22.40
2023-02-13T18:38:17.424Z,17.93
2023-02-13T18:40:47.102Z,15.13
2023-02-13T18:43:16.051Z,13.10
2023-02-13T18:45:45.799Z,12.83
2023-02-13T18:48:14.896Z,13.73
2023-02-13T18:50:44.288Z,15.17
2023-02-13T18:53:13.000Z,13.97
2023-02-13T18:55:41.208Z,13.57
2023-02-13T18:58:10.830Z,18.97
2023-02-13T19:00:39.216Z,17.23
2023-02-13T19:03:07.480Z,20.27
2023-02-13T19:05:35.584Z,22.57
2023-02-13T19:08:05.660Z,29.10
2023-02-13T19:10:33.882Z,22.00
2023-02-13T19:13:01.928Z,22.00
2023-02-13T19:15:31.651Z,20.77
2023-02-13T19:18:01.217Z,20.67
2023-02-13T19:20:29.617Z,17.47
2023-02-13T19:22:57.710Z,16.63
2023-02-13T19:25:27.844Z,16.70
2023-02-13T19:27:56.178Z,15.23
2023-02-13T19:30:24.688Z,17.47
2023-02-13T19:32:55.464Z,26.40
2023-02-13T19:35:23.996Z,24.07
2023-02-13T19:37:52.022Z,24.33
2023-02-13T19:40:20.682Z,27.67
2023-02-13T19:42:49.064Z,27.70
2023-02-13T19:45:17.777Z,27.07
2023-02-13T19:47:45.872Z,24.10
2023-02-13T19:50:16.654Z,24.03
2023-02-13T19:52:44.754Z,20.57
2023-02-13T19:55:12.873Z,19.43
2023-02-13T19:57:41.028Z,20.60
2023-02-13T20:00:10.661Z,18.40
2023-02-13T20:02:41.420Z,20.43
2023-02-13T20:05:10.205Z,27.73
2023-02-13T20:07:39.678Z,37.20
2023-02-13T20:10:11.012Z,26.97
2023-02-13T20:12:39.563Z,45.57
2023-02-13T20:15:09.228Z,43.27
2023-02-13T20:17:39.046Z,34.47
2023-02-13T20:20:09.292Z,26.47
2023-02-13T20:22:38.725Z,23.50
2023-02-13T20:25:07.644Z,23.63
2023-02-13T20:27:42.320Z,21.90
2023-02-13T20:30:15.598Z,23.60
2023-02-13T20:32:44.264Z,24.47
2023-02-13T20:35:12.513Z,23.33
2023-02-13T20:37:42.728Z,22.73
2023-02-13T20:40:13.117Z,14.50
2023-02-13T20:42:43.833Z,15.13
2023-02-13T20:45:12.043Z,17.33
2023-02-13T20:47:42.792Z,14.27
2023-02-13T20:50:11.789Z,17.17
2023-02-13T20:52:41.693Z,20.63
2023-02-13T20:55:10.274Z,23.83
2023-02-13T20:57:38.683Z,24.27
2023-02-13T21:00:12.391Z,27.10
2023-02-13T21:02:40.806Z,18.87
2023-02-13T21:05:09.434Z,35.23
2023-02-13T21:07:37.654Z,35.30
2023-02-13T21:10:08.600Z,33.43
2023-02-13T21:12:37.106Z,31.47
2023-02-13T21:15:05.872Z,29.93
2023-02-13T21:17:34.085Z,22.63
2023-02-13T21:20:02.209Z,17.00
2023-02-13T21:22:31.453Z,25.20
2023-02-13T21:24:59.589Z,20.20
2023-02-13T21:27:30.157Z,14.80
2023-02-13T21:29:58.553Z,13.13
2023-02-13T21:32:26.749Z,7.23
2023-02-13T21:34:56.622Z,8.70
2023-02-13T21:37:25.192Z,21.10
2023-02-13T21:39:53.306Z,12.60
2023-02-13T21:42:21.782Z,7.47
2023-02-13T21:44:51.517Z,5.50
2023-02-13T21:47:19.865Z,7.07
2023-02-13T21:49:49.160Z,13.30
2023-02-13T21:52:18.325Z,13.50
2023-02-13T21:54:47.076Z,12.53
2023-02-13T21:57:15.155Z,12.03
2023-02-13T21:59:43.229Z,25.83
2023-02-13T22:02:13.003Z,15.83
2023-02-13T22:04:42.654Z,18.00
2023-02-13T22:07:10.747Z,13.13
2023-02-13T22:09:39.778Z,9.40
2023-02-13T22:12:08.274Z,9.57
2023-02-13T22:14:36.888Z,16.33
2023-02-13T22:17:05.092Z,12.53
2023-02-13T22:19:35.176Z,4.47
2023-02-13T22:22:03.484Z,6.93
2023-02-13T22:24:32.906Z,6.37
2023-02-13T22:27:01.192Z,6.60
2023-02-13T22:29:29.627Z,11.50
2023-02-13T22:31:57.877Z,18.90
2023-02-13T22:34:26.011Z,29.93
2023-02-13T22:36:55.661Z,21.30
2023-02-13T22:39:23.901Z,14.53
2023-02-13T22:41:52.129Z,14.67
2023-02-13T22:44:20.251Z,11.57
2023-02-13T22:46:48.735Z,6.97
2023-02-13T22:49:16.836Z,5.73
2023-02-13T22:51:45.160Z,6.63
2023-02-13T22:54:14.616Z,6.27
2023-02-13T22:56:42.857Z,7.30
2023-02-13T22:59:13.381Z,5.47
2023-02-13T23:01:41.438Z,7.13
2023-02-13T23:04:09.903Z,5.30
2023-02-13T23:06:38.187Z,7.10
2023-02-13T23:09:08.149Z,7.00
2023-02-13T23:11:54.839Z,11.60
2023-02-13T23:14:24.596Z,18.70
2023-02-13T23:17:10.612Z,18.23
2023-02-13T23:19:39.369Z,10.40
2023-02-13T23:22:07.660Z,6.57
2023-02-13T23:24:35.719Z,6.30
2023-02-13T23:27:05.699Z,5.90
2023-02-13T23:29:34.390Z,4.30
2023-02-13T23:32:02.664Z,6.07
2023-02-13T23:34:30.879Z,7.27
2023-02-13T23:36:59.400Z,3.50
2023-02-13T23:39:27.625Z,7.23
2023-02-13T23:41:55.691Z,4.63
2023-02-13T23:44:27.756Z,4.33
2023-02-13T23:46:56.795Z,4.33
2023-02-13T23:49:24.996Z,7.13
2023-02-13T23:51:53.378Z,4.70
2023-02-13T23:54:24.567Z,4.73
2023-02-13T23:56:55.331Z,5.77
2023-02-13T23:59:26.007Z,6.83
